Time;durP1;ratioP1;P1;durP2;ratioP2;P2;SDS_P1;SDS_P2;PMS_P1;PMS_P2;Temp;Humidity;BMP_temperature;BMP_pressure;BME280_temperature;BME280_humidity;BME280_pressure;Samples;Min_cycle;Max_cycle;Signal;HPM_P1;HPM_P2
2024/02/02 00:01:15;;;;;;;;;16.50;11.00;;;;;8.96;75.82;102917.09;5052957;28;45403;-64
2024/02/02 00:03:40;;;;;;;;;17.25;10.75;;;;;8.92;75.72;102907.44;5048247;28;46945;-64
2024/02/02 00:06:05;;;;;;;;;15.75;11.00;;;;;8.91;75.69;102906.56;5039439;28;73214;-64
2024/02/02 00:08:31;;;;;;;;;16.00;10.00;;;;;8.91;75.75;102909.19;5039613;28;45362;-64
2024/02/02 00:10:56;;;;;;;;;17.50;13.00;;;;;8.90;76.09;102904.81;5038338;28;65715;-64
2024/02/02 00:13:21;;;;;;;;;13.50;12.25;;;;;8.87;75.61;102902.19;5040484;28;45450;-64
2024/02/02 00:15:47;;;;;;;;;17.50;10.75;;;;;8.88;75.91;102906.53;5037697;28;72113;-64
2024/02/02 00:18:12;;;;;;;;;8.50;3.25;;;;;8.88;76.06;102905.66;5041176;28;69350;-64
2024/02/02 00:20:37;;;;;;;;;13.25;7.00;;;;;8.88;75.91;102913.50;5039352;28;63739;-63
2024/02/02 00:23:03;;;;;;;;;16.50;13.00;;;;;8.88;76.10;102914.34;5038164;28;75465;-64
2024/02/02 00:25:28;;;;;;;;;9.75;9.75;;;;;8.88;75.96;102903.03;5039455;28;45606;-63
2024/02/02 00:27:53;;;;;;;;;14.50;11.00;;;;;8.89;76.22;102905.69;5040552;28;45275;-63
2024/02/02 00:30:19;;;;;;;;;12.00;9.00;;;;;8.88;76.48;102906.53;5039449;28;58435;-63
2024/02/02 00:32:44;;;;;;;;;18.75;14.00;;;;;8.91;76.51;102903.97;5038386;28;75865;-63
2024/02/02 00:35:11;;;;;;;;;14.75;11.75;;;;;8.92;76.60;102908.34;5042994;28;71836;-64
2024/02/02 00:37:37;;;;;;;;;19.25;13.75;;;;;8.95;76.96;102915.34;5043184;28;45449;-63
2024/02/02 00:40:03;;;;;;;;;14.50;12.00;;;;;8.96;76.87;102917.09;5048984;28;45250;-63
2024/02/02 00:42:28;;;;;;;;;19.50;16.25;;;;;8.97;77.36;102913.63;5039084;28;45568;-64
2024/02/02 00:44:54;;;;;;;;;26.75;19.50;;;;;8.97;77.52;102913.63;5039382;28;45411;-64
2024/02/02 00:47:19;;;;;;;;;26.50;22.00;;;;;8.96;77.48;102917.09;5036216;28;69093;-64
2024/02/02 00:49:44;;;;;;;;;30.25;20.25;;;;;8.94;77.74;102916.19;5036261;28;45545;-63
2024/02/02 00:52:10;;;;;;;;;25.75;20.50;;;;;8.91;78.10;102911.81;5038362;28;75584;-63
2024/02/02 00:54:35;;;;;;;;;28.25;18.50;;;;;8.92;78.25;102904.84;5042263;28;45326;-63
2024/02/02 00:57:00;;;;;;;;;25.00;22.00;;;;;8.93;78.40;102894.41;5037522;28;69348;-63
2024/02/02 00:59:25;;;;;;;;;26.75;21.25;;;;;8.92;78.23;102890.06;5039625;28;72050;-63
2024/02/02 01:01:51;;;;;;;;;25.50;19.00;;;;;8.93;78.18;102886.59;5038155;28;45556;-64
2024/02/02 01:04:16;;;;;;;;;21.50;14.25;;;;;8.93;78.28;102888.31;5040994;28;73149;-64
2024/02/02 01:06:42;;;;;;;;;30.00;23.00;;;;;8.94;78.31;102895.28;5041414;28;69482;-65
2024/02/02 01:09:07;;;;;;;;;28.50;22.75;;;;;8.94;78.59;102892.69;5047265;28;45344;-64
2024/02/02 01:11:32;;;;;;;;;30.75;24.25;;;;;8.95;78.52;102885.75;5039852;28;46320;-64
2024/02/02 01:13:58;;;;;;;;;34.00;22.75;;;;;8.96;78.67;102893.59;5036060;28;73120;-64
2024/02/02 01:16:23;;;;;;;;;28.25;21.00;;;;;8.97;78.69;102897.09;5038585;28;69363;-64
2024/02/02 01:18:48;;;;;;;;;20.75;20.25;;;;;8.96;78.63;102891.00;5036873;28;63791;-63
2024/02/02 01:21:14;;;;;;;;;32.75;22.00;;;;;8.97;78.79;102891.84;5078422;27;75202;-64
2024/02/02 01:23:39;;;;;;;;;31.75;25.50;;;;;8.97;78.81;102890.13;5037828;28;69932;-63
2024/02/02 01:26:04;;;;;;;;;20.50;18.75;;;;;8.97;78.95;102897.09;5070223;27;69016;-64
2024/02/02 01:28:30;;;;;;;;;22.00;15.25;;;;;8.95;78.54;102886.59;5041904;28;61103;-64
2024/02/02 01:30:55;;;;;;;;;19.50;14.00;;;;;8.95;78.23;102894.44;5040485;28;74305;-64
2024/02/02 01:33:20;;;;;;;;;17.00;11.00;;;;;8.94;78.19;102892.69;5035953;28;45391;-65
2024/02/02 01:35:46;;;;;;;;;19.75;13.00;;;;;8.96;78.05;102890.09;5040747;28;45216;-62
2024/02/02 01:38:11;;;;;;;;;16.75;14.75;;;;;8.95;77.87;102888.34;5037283;28;72134;-62
2024/02/02 01:40:36;;;;;;;;;13.75;11.00;;;;;8.95;77.84;102891.84;5033588;28;67391;-62
2024/02/02 01:43:03;;;;;;;;;15.25;11.50;;;;;8.92;77.74;102890.06;5040009;28;72174;-62
2024/02/02 01:45:28;;;;;;;;;16.00;13.00;;;;;8.93;77.93;102877.88;5039275;28;45267;-62
2024/02/02 01:47:54;;;;;;;;;8.00;6.25;;;;;8.91;77.86;102880.47;5057001;28;45483;-62
2024/02/02 01:50:19;;;;;;;;;12.50;11.00;;;;;8.92;77.96;102889.16;5043545;28;74347;-62
2024/02/02 01:52:44;;;;;;;;;21.25;13.00;;;;;8.90;77.91;102885.66;5051340;28;70330;-62
2024/02/02 01:55:10;;;;;;;;;16.25;13.00;;;;;8.92;78.29;102891.78;5041786;28;47125;-62
2024/02/02 01:57:35;;;;;;;;;22.00;13.00;;;;;8.91;77.81;102896.13;5048254;28;71583;-62
2024/02/02 02:00:02;;;;;;;;;18.25;14.75;;;;;8.90;77.88;102896.09;5036833;28;74268;-62
2024/02/02 02:02:27;;;;;;;;;17.00;12.75;;;;;8.83;78.01;102892.50;5046653;28;45987;-62
2024/02/02 02:04:52;;;;;;;;;14.25;13.50;;;;;8.91;78.07;102903.97;5038558;28;45311;-62
2024/02/02 02:07:18;;;;;;;;;17.25;12.00;;;;;8.89;78.51;102897.84;5041927;28;73139;-61
2024/02/02 02:09:43;;;;;;;;;17.50;14.00;;;;;8.91;78.56;102901.34;5035962;28;46121;-61
2024/02/02 02:12:08;;;;;;;;;22.00;16.00;;;;;8.91;78.68;102903.97;5030070;28;74410;-63
2024/02/02 02:14:34;;;;;;;;;20.00;16.50;;;;;8.91;78.64;102897.88;5037518;28;48480;-63
2024/02/02 02:16:59;;;;;;;;;18.75;14.25;;;;;8.92;79.12;102892.69;5038097;28;51722;-63
2024/02/02 02:19:24;;;;;;;;;19.50;17.00;;;;;8.92;79.09;102889.16;5046777;28;46249;-63
2024/02/02 02:21:50;;;;;;;;;19.00;14.25;;;;;8.92;79.51;102886.56;5039270;28;73095;-63
2024/02/02 02:24:15;;;;;;;;;20.25;16.00;;;;;8.93;79.23;102899.63;5039531;28;64581;-63
2024/02/02 02:26:41;;;;;;;;;22.25;19.25;;;;;8.93;79.49;102898.78;5039047;28;71178;-63
2024/02/02 02:29:06;;;;;;;;;24.50;19.00;;;;;8.92;79.84;102884.84;5037947;28;47041;-63
2024/02/02 02:31:32;;;;;;;;;25.75;20.25;;;;;8.91;79.83;102882.22;5041152;28;47211;-63
2024/02/02 02:33:57;;;;;;;;;25.25;20.00;;;;;8.91;80.14;102890.91;5038255;28;45294;-63
2024/02/02 02:36:23;;;;;;;;;24.50;18.25;;;;;8.90;79.98;102885.66;5038905;28;47828;-63
2024/02/02 02:38:49;;;;;;;;;22.75;19.50;;;;;8.91;80.22;102892.66;5039976;28;74542;-64
2024/02/02 02:41:14;;;;;;;;;22.75;20.50;;;;;8.89;80.43;102884.78;5044214;28;47159;-63
2024/02/02 02:43:40;;;;;;;;;33.75;21.75;;;;;8.86;80.71;102881.25;5042963;28;46499;-63
2024/02/02 02:46:06;;;;;;;;;22.00;19.75;;;;;8.84;80.56;102881.22;5041638;28;46135;-63
2024/02/02 02:48:31;;;;;;;;;23.25;18.50;;;;;8.83;80.70;102881.19;5038330;28;46334;-63
2024/02/02 02:50:57;;;;;;;;;25.50;20.50;;;;;8.82;80.80;102884.66;5043247;28;60606;-63
2024/02/02 02:53:22;;;;;;;;;22.50;20.50;;;;;8.80;81.14;102873.31;5076546;27;69461;-63
2024/02/02 02:55:47;;;;;;;;;25.25;18.50;;;;;8.80;80.93;102868.09;5042040;28;45441;-63
2024/02/02 02:58:13;;;;;;;;;28.00;18.75;;;;;8.77;81.37;102863.72;5038084;28;75145;-63
2024/02/02 03:00:38;;;;;;;;;24.50;19.50;;;;;8.74;81.41;102858.44;5036998;28;45454;-63
2024/02/02 03:03:03;;;;;;;;;18.75;17.25;;;;;8.74;81.40;102853.22;5068631;27;69440;-63
2024/02/02 03:05:29;;;;;;;;;29.00;21.75;;;;;8.74;81.42;102853.22;5038606;28;45582;-63
2024/02/02 03:07:55;;;;;;;;;20.00;18.25;;;;;8.71;81.35;102856.69;5049574;28;46180;-63
2024/02/02 03:10:25;;;;;;;;;25.00;22.00;;;;;8.70;81.51;102870.56;5042517;28;48263;-63
2024/02/02 03:12:53;;;;;;;;;33.25;21.75;;;;;8.69;81.82;102868.84;5042563;28;45517;-63
2024/02/02 03:15:19;;;;;;;;;26.25;19.00;;;;;8.67;81.44;102861.81;5043650;28;45371;-63
2024/02/02 03:17:45;;;;;;;;;23.50;15.00;;;;;8.67;81.87;102857.47;5044101;28;46377;-63
2024/02/02 03:20:11;;;;;;;;;25.25;20.25;;;;;8.65;81.69;102861.78;5047726;28;46685;-63
2024/02/02 03:22:37;;;;;;;;;28.50;19.00;;;;;8.64;81.94;102853.94;5041565;28;45443;-63
2024/02/02 03:25:02;;;;;;;;;30.25;19.00;;;;;8.62;81.45;102846.09;5046083;28;45714;-62
2024/02/02 03:27:28;;;;;;;;;29.00;20.50;;;;;8.61;81.86;102846.94;5041510;28;46776;-63
2024/02/02 03:29:53;;;;;;;;;31.25;19.75;;;;;8.59;81.90;102842.53;5039964;28;71874;-62
2024/02/02 03:32:18;;;;;;;;;24.50;20.75;;;;;8.60;81.86;102849.53;5051202;28;45584;-63
2024/02/02 03:34:44;;;;;;;;;27.50;20.50;;;;;8.58;81.74;102849.50;5047603;28;45329;-63
2024/02/02 03:37:09;;;;;;;;;23.25;17.00;;;;;8.57;81.65;102844.25;5044289;28;46825;-63
2024/02/02 03:39:34;;;;;;;;;19.25;13.25;;;;;8.52;81.44;102839.00;5040183;28;73928;-63
2024/02/02 03:42:00;;;;;;;;;21.25;15.50;;;;;8.53;81.62;102840.72;5043838;28;45413;-63
2024/02/02 03:44:25;;;;;;;;;18.75;16.50;;;;;8.50;81.38;102838.97;5049747;28;59932;-63
2024/02/02 03:46:50;;;;;;;;;19.00;17.25;;;;;8.48;81.19;102839.78;5051793;28;66444;-62
2024/02/02 03:49:16;;;;;;;;;20.25;17.25;;;;;8.46;81.17;102839.75;5053243;28;45507;-63
2024/02/02 03:51:41;;;;;;;;;21.25;14.25;;;;;8.44;81.02;102832.75;5049464;28;69759;-63
2024/02/02 03:54:07;;;;;;;;;20.50;13.00;;;;;8.43;81.06;102831.00;5043401;28;45334;-62
2024/02/02 03:56:33;;;;;;;;;13.00;11.75;;;;;8.41;81.27;102823.13;5044790;28;74391;-63
2024/02/02 03:58:58;;;;;;;;;19.25;12.75;;;;;8.40;80.98;102834.41;5041876;28;72901;-63
2024/02/02 04:01:23;;;;;;;;;19.25;10.00;;;;;8.36;80.66;102833.50;5046237;28;45577;-63
2024/02/02 04:03:49;;;;;;;;;17.00;10.25;;;;;8.35;80.90;102826.50;5040054;28;45250;-63
2024/02/02 04:06:14;;;;;;;;;20.00;11.00;;;;;8.33;80.75;102836.03;5046145;28;72925;-62
2024/02/02 04:08:39;;;;;;;;;17.00;12.25;;;;;8.31;80.34;102837.75;5046284;28;73396;-62
2024/02/02 04:11:05;;;;;;;;;15.00;9.75;;;;;8.28;80.36;102847.25;5040391;28;45447;-63
2024/02/02 04:13:30;;;;;;;;;11.25;9.50;;;;;8.24;80.44;102841.13;5040965;28;45288;-62
2024/02/02 04:15:55;;;;;;;;;13.25;10.50;;;;;8.23;80.24;102839.34;5040938;28;75808;-63
2024/02/02 04:18:21;;;;;;;;;13.00;12.00;;;;;8.18;80.31;102818.41;5072171;27;45422;-62
2024/02/02 04:20:46;;;;;;;;;16.75;12.25;;;;;8.19;80.59;102821.91;5045868;28;69647;-62
2024/02/02 04:23:11;;;;;;;;;11.00;8.75;;;;;8.19;80.45;102821.91;5039751;28;71858;-63
2024/02/02 04:25:37;;;;;;;;;21.00;12.50;;;;;8.16;80.39;102812.31;5046590;28;48202;-62
2024/02/02 04:28:04;;;;;;;;;11.75;9.25;;;;;8.14;80.34;102816.63;5049015;28;45362;-63
2024/02/02 04:30:30;;;;;;;;;14.75;10.50;;;;;8.13;80.38;102825.28;5040117;28;45421;-62
2024/02/02 04:32:55;;;;;;;;;10.25;8.75;;;;;8.11;80.12;102824.38;5040040;28;45409;-63
2024/02/02 04:35:21;;;;;;;;;11.50;9.75;;;;;8.10;80.12;102821.75;5039650;28;45866;-63
2024/02/02 04:37:46;;;;;;;;;13.75;9.50;;;;;8.08;80.12;102826.06;5039398;28;56819;-62
2024/02/02 04:40:12;;;;;;;;;10.75;8.50;;;;;8.08;nan;102831.28;5038350;28;69069;-63
2024/02/02 04:42:37;;;;;;;;;16.00;10.00;;;;;8.04;80.11;102829.44;5039906;28;45445;-62
2024/02/02 04:45:02;;;;;;;;;12.25;10.50;;;;;8.03;79.97;102822.50;5076735;27;45331;-62
2024/02/02 04:47:28;;;;;;;;;15.50;4.75;;;;;8.02;80.37;102829.47;5035431;28;45607;-62
2024/02/02 04:49:53;;;;;;;;;16.00;8.75;;;;;7.99;80.18;102838.09;5030454;28;45296;-62
2024/02/02 04:52:18;;;;;;;;;9.25;7.50;;;;;7.99;80.18;102842.44;5044637;28;71225;-62
2024/02/02 04:54:44;;;;;;;;;11.50;9.00;;;;;7.98;80.04;102848.47;5039086;28;48128;-62
2024/02/02 04:57:09;;;;;;;;;12.00;8.25;;;;;7.95;80.29;102851.94;5039193;28;45356;-62
2024/02/02 04:59:34;;;;;;;;;8.75;6.75;;;;;7.96;80.25;102850.19;5039856;28;45464;-62
2024/02/02 05:02:00;;;;;;;;;10.75;9.25;;;;;7.93;80.28;102848.41;5037934;28;72853;-62
2024/02/02 05:04:25;;;;;;;;;16.00;11.00;;;;;7.96;80.25;102850.19;5038680;28;74402;-62
2024/02/02 05:06:50;;;;;;;;;12.50;10.50;;;;;7.96;80.39;102858.88;5037635;28;73477;-62
2024/02/02 05:09:16;;;;;;;;;9.50;8.75;;;;;7.94;80.73;102851.91;5040515;28;45465;-62
2024/02/02 05:11:41;;;;;;;;;16.25;10.00;;;;;7.96;80.71;102852.78;5039881;28;45399;-62
2024/02/02 05:14:06;;;;;;;;;10.50;9.00;;;;;7.96;80.38;102856.28;5042404;28;52276;-62
2024/02/02 05:16:32;;;;;;;;;9.75;8.75;;;;;7.95;80.48;102857.13;5041500;28;72785;-62
2024/02/02 05:18:57;;;;;;;;;12.25;8.50;;;;;7.95;80.39;102864.06;5037701;28;45572;-62
2024/02/02 05:21:22;;;;;;;;;12.25;7.25;;;;;7.96;80.37;102861.50;5047438;28;72077;-62
2024/02/02 05:23:48;;;;;;;;;13.25;9.00;;;;;7.96;80.65;102868.44;5038240;28;70846;-62
2024/02/02 05:26:13;;;;;;;;;10.75;7.00;;;;;7.96;80.60;102877.13;5040760;28;73254;-62
2024/02/02 05:28:40;;;;;;;;;11.00;6.25;;;;;7.96;80.42;102871.03;5045126;28;45569;-62
2024/02/02 05:31:06;;;;;;;;;9.50;6.50;;;;;7.96;80.52;102873.66;5044094;28;45312;-62
2024/02/02 05:33:31;;;;;;;;;14.25;8.00;;;;;7.95;80.57;102869.28;5036301;28;45636;-62
2024/02/02 05:35:57;;;;;;;;;9.00;4.75;;;;;7.95;80.63;102870.19;5037218;28;72495;-63
2024/02/02 05:38:22;;;;;;;;;9.50;8.25;;;;;7.94;80.47;102865.81;5044663;28;45322;-62
2024/02/02 05:40:48;;;;;;;;;17.25;8.25;;;;;7.94;80.50;102863.19;5048810;28;56652;-62
2024/02/02 05:43:14;;;;;;;;;7.75;4.75;;;;;7.93;80.86;102856.25;5045922;28;46210;-62
2024/02/02 05:45:39;;;;;;;;;7.00;5.50;;;;;7.92;80.68;102851.88;5045012;28;73152;-62
2024/02/02 05:48:05;;;;;;;;;9.75;5.75;;;;;7.92;80.90;102856.22;5038475;28;45556;-62
2024/02/02 05:50:30;;;;;;;;;6.50;6.50;;;;;7.92;80.85;102851.88;5038235;28;45438;-62
2024/02/02 05:52:55;;;;;;;;;10.00;7.50;;;;;7.92;80.90;102861.41;5039206;28;46050;-62
2024/02/02 05:55:21;;;;;;;;;8.75;7.75;;;;;7.91;80.90;102859.66;5050270;28;45203;-62
2024/02/02 05:57:46;;;;;;;;;9.75;7.50;;;;;7.93;81.18;102864.06;5037217;28;67814;-62
2024/02/02 06:00:12;;;;;;;;;9.50;6.25;;;;;7.91;81.07;102855.31;5043663;28;45326;-62
2024/02/02 06:02:37;;;;;;;;;9.00;7.50;;;;;7.93;80.99;102855.34;5038494;28;47001;-62
2024/02/02 06:05:03;;;;;;;;;8.75;6.50;;;;;7.93;80.91;102848.41;5036043;28;73203;-63
2024/02/02 06:07:28;;;;;;;;;8.00;7.00;;;;;7.92;80.92;102844.03;5037113;28;45240;-62
2024/02/02 06:09:53;;;;;;;;;11.50;10.50;;;;;7.92;80.98;102848.38;5069878;27;72240;-62
2024/02/02 06:12:19;;;;;;;;;10.75;10.00;;;;;7.89;81.07;102857.00;5038109;28;71257;-63
2024/02/02 06:14:44;;;;;;;;;12.50;8.50;;;;;7.86;81.09;102853.47;5037740;28;48364;-62
2024/02/02 06:17:10;;;;;;;;;9.50;7.00;;;;;7.86;81.09;102864.81;5038529;28;64276;-62
2024/02/02 06:19:36;;;;;;;;;9.50;8.50;;;;;7.86;81.03;102863.91;5037597;28;45296;-62
2024/02/02 06:22:01;;;;;;;;;12.50;8.75;;;;;7.84;81.23;102869.06;5040499;28;46098;-62
2024/02/02 06:24:27;;;;;;;;;10.50;9.75;;;;;7.84;81.22;102865.59;5037229;28;45480;-62
2024/02/02 06:26:52;;;;;;;;;10.50;8.00;;;;;7.85;81.16;102856.94;5036154;28;60858;-62
2024/02/02 06:29:18;;;;;;;;;10.25;8.00;;;;;7.84;81.21;102865.59;5038684;28;45453;-62
2024/02/02 06:31:43;;;;;;;;;13.00;10.00;;;;;7.83;81.24;102864.72;5034445;28;45293;-62
2024/02/02 06:34:09;;;;;;;;;18.25;9.75;;;;;7.82;81.04;102867.31;5039677;28;45401;-62
2024/02/02 06:36:34;;;;;;;;;13.00;8.25;;;;;7.82;81.40;102870.78;5038514;28;66339;-62
2024/02/02 06:38:59;;;;;;;;;8.25;6.50;;;;;7.77;81.03;102878.53;5037956;28;60939;-62
2024/02/02 06:41:24;;;;;;;;;13.50;10.00;;;;;7.76;81.09;102878.50;5038802;28;51518;-64
2024/02/02 06:43:50;;;;;;;;;13.00;9.25;;;;;7.71;80.91;102873.19;5046304;28;71853;-61
2024/02/02 06:46:15;;;;;;;;;11.75;10.00;;;;;7.68;80.98;102865.31;5043691;28;63832;-61
2024/02/02 06:48:43;;;;;;;;;10.50;9.75;;;;;7.64;81.05;102854.81;5043560;28;73257;-61
2024/02/02 06:51:08;;;;;;;;;11.25;10.25;;;;;7.58;80.95;102853.84;5045188;28;46375;-62
2024/02/02 06:53:35;;;;;;;;;16.75;11.50;;;;;7.56;81.21;102854.63;5041489;28;45601;-61
2024/02/02 06:56:01;;;;;;;;;17.25;10.75;;;;;7.53;81.10;102865.03;5041312;28;45518;-62
2024/02/02 06:58:40;;;;;;;;;35.75;28.50;;;;;7.50;81.29;102855.41;5041268;28;45338;-61
2024/02/02 07:01:09;;;;;;;;;53.75;40.50;;;;;7.46;81.27;102852.72;5044667;28;47174;-62
2024/02/02 07:03:35;;;;;;;;;18.00;12.75;;;;;7.46;81.38;102860.53;5071755;28;45451;-62
2024/02/02 07:06:02;;;;;;;;;16.25;13.00;;;;;7.45;81.37;102867.44;5041644;28;45648;-62
2024/02/02 07:08:29;;;;;;;;;17.00;12.50;;;;;7.43;81.39;102869.16;5072294;27;45447;-62
2024/02/02 07:11:07;;;;;;;;;14.25;11.00;;;;;7.44;81.45;102868.31;5039984;28;45391;-62
2024/02/02 07:13:49;;;;;;;;;15.50;12.75;;;;;7.47;81.70;102873.59;5038488;28;49906;-61
2024/02/02 07:16:22;;;;;;;;;19.25;13.50;;;;;7.51;81.56;102870.19;5042256;28;45307;-61
2024/02/02 07:18:48;;;;;;;;;18.25;12.25;;;;;7.54;81.48;102866.75;5056393;28;45502;-64
2024/02/02 07:21:13;;;;;;;;;18.25;13.75;;;;;7.55;81.14;102879.81;5040045;28;46021;-63
2024/02/02 07:23:41;;;;;;;;;12.50;10.25;;;;;7.55;81.40;102890.25;5039821;28;45312;-69
2024/02/02 07:26:32;;;;;;;;;18.50;11.50;;;;;7.57;81.45;102891.16;5040497;28;45397;-65
2024/02/02 07:28:58;;;;;;;;;19.50;14.75;;;;;7.60;81.37;102892.97;5040061;28;45673;-62
2024/02/02 07:31:37;;;;;;;;;17.25;15.25;;;;;7.60;81.16;102895.56;5039638;28;45512;-62
2024/02/02 07:34:06;;;;;;;;;21.25;15.25;;;;;7.60;81.30;102903.38;5040456;28;46011;-63
2024/02/02 07:36:34;;;;;;;;;20.25;15.00;;;;;7.60;81.50;102900.78;5040256;28;45340;-63
2024/02/02 07:39:00;;;;;;;;;16.75;13.50;;;;;7.61;81.34;102905.13;5042569;28;45587;-62
2024/02/02 07:41:27;;;;;;;;;15.50;10.75;;;;;7.62;81.21;102903.41;5044799;28;45527;-63
2024/02/02 07:43:57;;;;;;;;;16.00;12.25;;;;;7.65;81.39;102903.44;5044820;28;45698;-63
2024/02/02 07:46:22;;;;;;;;;15.25;9.75;;;;;7.66;81.21;102892.19;5041414;28;45437;-61
2024/02/02 07:48:49;;;;;;;;;14.50;11.00;;;;;7.68;81.32;102899.19;5040577;28;45570;-62
2024/02/02 07:51:18;;;;;;;;;17.25;14.00;;;;;7.71;81.17;102894.03;5038308;28;46360;-67
2024/02/02 07:53:44;;;;;;;;;14.75;11.00;;;;;7.72;81.07;102903.63;5038481;28;45837;-65
2024/02/02 07:56:10;;;;;;;;;16.00;14.00;;;;;7.71;81.11;102901.84;5044446;28;46104;-62
2024/02/02 07:58:35;;;;;;;;;15.75;11.25;;;;;7.73;81.14;102902.75;5039419;28;45553;-66
2024/02/02 08:01:01;;;;;;;;;20.25;13.75;;;;;7.68;81.26;102906.13;5039208;28;46298;-63
2024/02/02 08:03:26;;;;;;;;;16.00;12.50;;;;;7.60;81.72;102900.78;5037568;28;59494;-63
2024/02/02 08:05:51;;;;;;;;;15.00;10.00;;;;;7.51;81.71;102898.84;5040738;28;45495;-63
2024/02/02 08:08:17;;;;;;;;;10.75;9.25;;;;;7.46;81.78;102900.50;5039079;28;74390;-63
2024/02/02 08:10:42;;;;;;;;;14.25;9.25;;;;;7.40;81.87;102898.63;5038897;28;46508;-66
2024/02/02 08:13:11;;;;;;;;;14.75;11.25;;;;;7.29;82.04;102897.50;5040466;28;45853;-66
2024/02/02 08:15:37;;;;;;;;;13.50;10.50;;;;;7.21;82.67;102904.28;5049335;28;45371;-66
2024/02/02 08:18:06;;;;;;;;;11.50;10.00;;;;;7.18;83.13;102904.22;5040374;28;45456;-67
2024/02/02 08:20:32;;;;;;;;;14.75;12.75;;;;;7.15;83.07;102906.75;5037601;28;45605;-68
2024/02/02 08:22:57;;;;;;;;;15.00;11.25;;;;;7.12;82.76;102909.28;5040071;28;45378;-65
2024/02/02 08:25:23;;;;;;;;;7.50;6.75;;;;;7.14;82.39;102910.22;5071655;27;45601;-64
2024/02/02 08:27:49;;;;;;;;;11.00;10.75;;;;;7.19;82.72;102911.19;5036241;28;73135;-63
2024/02/02 08:30:14;;;;;;;;;20.25;12.00;;;;;7.26;82.45;102913.09;5040233;28;46557;-64
2024/02/02 08:32:40;;;;;;;;;14.00;13.50;;;;;7.34;82.24;102905.44;5059416;28;45555;-64
2024/02/02 08:35:06;;;;;;;;;11.75;10.50;;;;;7.40;81.64;102909.06;5088577;27;45195;-63
2024/02/02 08:37:32;;;;;;;;;16.00;9.00;;;;;7.45;81.77;102909.13;5050914;28;45286;-64
2024/02/02 08:39:57;;;;;;;;;13.75;8.75;;;;;7.51;81.31;102913.63;5040214;28;45271;-63
2024/02/02 08:42:23;;;;;;;;;17.25;10.75;;;;;7.56;81.12;102915.47;5039247;28;45475;-65
2024/02/02 08:44:50;;;;;;;;;14.25;10.50;;;;;7.61;80.89;102915.53;5046193;28;45300;-63
2024/02/02 08:47:18;;;;;;;;;11.50;10.00;;;;;7.65;80.79;102908.66;5051285;28;45377;-66
2024/02/02 08:49:55;;;;;;;;;12.75;11.25;;;;;7.68;80.41;102909.59;5041480;28;50301;-66
2024/02/02 08:52:43;;;;;;;;;14.50;9.00;;;;;7.75;80.17;102913.22;5039710;28;45500;-65
2024/02/02 08:55:38;;;;;;;;;11.00;9.50;;;;;7.84;79.94;102910.78;5047034;28;45343;-65
2024/02/02 08:58:23;;;;;;;;;18.50;11.00;;;;;7.90;79.80;102923.97;5046017;28;45388;-65
2024/02/02 09:00:50;;;;;;;;;14.75;10.50;;;;;7.93;79.59;102918.81;5043657;28;45462;-66
2024/02/02 09:03:25;;;;;;;;;11.25;7.50;;;;;7.95;79.09;102924.94;5041442;28;45803;-68
2024/02/02 09:05:52;;;;;;;;;14.00;11.00;;;;;7.97;78.75;102923.22;5043798;28;45284;-63
2024/02/02 09:08:40;;;;;;;;;14.00;10.75;;;;;8.02;78.70;102928.53;5079615;27;45456;-64
2024/02/02 09:11:11;;;;;;;;;11.75;9.00;;;;;8.05;78.33;102922.50;5043766;28;45466;-63
2024/02/02 09:13:37;;;;;;;;;10.25;7.75;;;;;8.09;78.26;102917.38;5055116;28;45884;-69
2024/02/02 09:16:03;;;;;;;;;46.00;34.75;;;;;8.11;78.19;102926.09;5073724;27;69046;-66
2024/02/02 09:18:38;;;;;;;;;15.25;10.75;;;;;8.11;77.89;102920.88;5043796;28;45367;-66
2024/02/02 09:21:04;;;;;;;;;15.00;10.50;;;;;8.13;77.75;102924.38;5039707;28;46249;-63
2024/02/02 09:23:32;;;;;;;;;18.25;12.00;;;;;8.18;77.70;102932.31;5042859;28;45457;-64
2024/02/02 09:25:58;;;;;;;;;9.00;8.50;;;;;8.22;77.19;102922.81;5038823;28;45520;-66
2024/02/02 09:28:28;;;;;;;;;16.25;11.75;;;;;8.25;77.28;102928.97;5039660;28;45510;-66
2024/02/02 09:30:57;;;;;;;;;13.25;9.25;;;;;8.29;77.18;102929.91;5037392;28;45362;-66
2024/02/02 09:33:31;;;;;;;;;10.00;9.00;;;;;8.27;77.00;102929.88;5040405;28;45834;-67
2024/02/02 09:36:03;;;;;;;;;15.50;10.50;;;;;8.29;77.34;102924.69;5035362;28;45229;-69
2024/02/02 09:38:30;;;;;;;;;14.50;12.25;;;;;8.34;77.13;102933.47;5038417;28;45537;-63
2024/02/02 09:41:01;;;;;;;;;10.75;10.00;;;;;8.42;77.15;102941.41;5047250;28;45426;-65
2024/02/02 09:43:51;;;;;;;;;15.50;11.50;;;;;8.46;76.78;102946.72;5039488;28;45885;-74
2024/02/02 09:46:20;;;;;;;;;15.50;9.75;;;;;8.48;76.86;102949.38;5037505;28;45379;-70
2024/02/02 09:49:27;;;;;;;;;14.75;11.00;;;;;8.52;76.84;102951.19;5044208;28;45307;-61
2024/02/02 09:52:26;;;;;;;;;16.75;13.50;;;;;8.65;76.83;102947.94;5035761;28;45438;-62
2024/02/02 09:54:59;;;;;;;;;14.00;11.00;;;;;8.72;76.77;102946.31;5040909;28;45892;-64
2024/02/02 09:57:55;;;;;;;;;32.00;23.25;;;;;8.81;76.41;102948.19;5055045;28;45504;-62
2024/02/02 10:00:40;;;;;;;;;19.50;11.50;;;;;8.89;76.39;102952.69;5044795;28;48326;-60
2024/02/02 10:03:08;;;;;;;;;17.75;12.25;;;;;8.94;76.01;102942.28;5030403;28;45337;-59
2024/02/02 10:05:58;;;;;;;;;13.25;11.25;;;;;8.98;75.81;102938.88;5068640;27;45782;-61
2024/02/02 10:09:02;;;;;;;;;19.00;11.50;;;;;9.01;76.02;102941.56;5027895;28;45368;-59
2024/02/02 10:11:36;;;;;;;;;15.25;11.00;;;;;9.10;75.48;102944.31;5071107;27;45381;-59
2024/02/02 10:14:19;;;;;;;;;25.75;12.25;;;;;9.18;75.30;102943.53;5039503;28;45553;-60
2024/02/02 10:17:03;;;;;;;;;48.00;38.50;;;;;9.25;75.07;102941.00;5040070;28;45830;-59
2024/02/02 10:20:02;;;;;;;;;66.50;49.50;;;;;9.31;75.00;102938.50;5042023;28;45269;-61
2024/02/02 10:22:52;;;;;;;;;19.75;14.25;;;;;9.39;75.11;102942.97;5042630;28;45387;-59
2024/02/02 10:25:42;;;;;;;;;18.00;11.50;;;;;9.48;74.84;102941.31;5042518;28;45786;-62
2024/02/02 10:28:27;;;;;;;;;17.25;13.25;;;;;9.59;74.51;102940.59;5070323;27;45545;-63
2024/02/02 10:31:01;;;;;;;;;16.50;13.75;;;;;9.65;73.69;102936.31;5055838;28;47242;-62
2024/02/02 10:33:36;;;;;;;;;16.75;14.00;;;;;9.73;73.85;102935.53;5018312;28;45520;-61
2024/02/02 10:36:11;;;;;;;;;17.00;15.25;;;;;9.79;73.64;102943.44;5022719;28;49547;-62
2024/02/02 10:38:53;;;;;;;;;18.00;14.50;;;;;9.85;73.96;102948.75;5035923;28;45330;-62
2024/02/02 10:41:36;;;;;;;;;20.75;15.25;;;;;9.93;73.30;102947.09;5016338;28;45224;-61
2024/02/02 10:44:22;;;;;;;;;12.75;10.25;;;;;9.93;72.46;102926.16;5027833;28;45465;-62
2024/02/02 10:47:23;;;;;;;;;15.00;11.50;;;;;9.93;72.56;102922.69;5035516;28;45345;-62
2024/02/02 10:50:04;;;;;;;;;13.50;13.00;;;;;9.97;72.83;102924.47;5017908;28;46046;-62
2024/02/02 10:52:48;;;;;;;;;16.50;12.00;;;;;10.02;72.22;102930.63;5054770;28;45510;-60
2024/02/02 10:55:19;;;;;;;;;18.25;12.25;;;;;10.08;72.10;102926.34;5021013;28;45229;-60
2024/02/02 10:57:47;;;;;;;;;15.00;12.25;;;;;10.18;71.98;102924.72;5019311;28;45280;-60
2024/02/02 11:00:17;;;;;;;;;16.50;13.00;;;;;10.33;71.60;102929.22;5026988;28;45534;-62
2024/02/02 11:03:06;;;;;;;;;11.25;11.00;;;;;10.43;71.56;102938.06;5019259;28;45514;-62
2024/02/02 11:05:43;;;;;;;;;16.75;12.75;;;;;10.55;71.19;102943.41;5015971;28;45584;-60
2024/02/02 11:08:14;;;;;;;;;15.75;12.00;;;;;10.90;70.76;102936.69;5063440;28;47243;-63
2024/02/02 11:10:52;;;;;;;;;14.00;13.00;;;;;11.51;70.28;102929.19;5053905;28;45940;-62
2024/02/02 11:13:38;;;;;;;;;15.75;14.50;;;;;11.83;69.55;102933.66;5023986;28;45404;-61
2024/02/02 11:16:14;;;;;;;;;15.25;14.00;;;;;12.48;68.70;102925.91;5060176;28;45305;-61
2024/02/02 11:18:53;;;;;;;;;19.75;14.50;;;;;12.68;66.81;102937.31;5021627;28;46561;-62
2024/02/02 11:21:38;;;;;;;;;17.25;11.50;;;;;12.64;65.96;102932.94;5035219;28;46206;-62
2024/02/02 11:24:23;;;;;;;;;26.00;16.00;;;;;12.56;66.02;102915.44;5023924;28;45467;-65
2024/02/02 11:27:09;;;;;;;;;20.50;17.00;;;;;12.54;65.81;102921.56;5019792;28;45451;-62